Terminal Aerodrome Forecast
Issued by NWS

Home | Current Version | Previous Version | Text Only | Print | Product List | Glossary On
Versions: 1 2 3 4 5 6 7 8 9 10 11 12 13 14 15 16 17
000
FTUS43 KPAH 181700
TAFCGI
TAF
KCGI 181723Z 1818/1918 05006KT P6SM BKN040 BKN200
     FM190100 06003KT P6SM SCT050
     FM190700 00000KT 4SM BR SKC
      TEMPO 1908/1912 1SM BR
     FM191500 10004KT P6SM FEW040=

USA.gov is the U.S. government's official web portal to all federal, state and local government web resources and services.